Latest Weather Observations for Charleville

IDQ60801

Issued at 10:31 am EST Wednesday 16 January 2019 (issued every 10 minutes, with the page automatically refreshed every 10 minutes)

About weather observations | Map of weather stations | Latest weather observations for QLD | Other Formats
Station Details ID: 044021 Name: CHARLEVILLE AERO Lat: -26.41 Lon: 146.26 Height: 301.6 m
Data from the previous 72 hours. | See also: Recent months at Charleville
Date/Time
EST
Temp
°C
App
Temp
°C
Dew
Point
°C
Rel
Hum
%
Delta-T
°C
Wind Press
QNH
hPa
Press
MSL
hPa
Rain since
9am
mm
Dir  Spd
km/h
Gust
km/h
Spd
kts
Gust
kts
16/10:30am 36.3 33.0 8.2 18 16.1 WNW 15 24 8 13 1012.6 1010.5 0.0
16/10:00am 35.1 32.2 9.5 21 14.9 N 15 28 8 15 1012.9 1010.8 0.0
16/09:30am 34.1 31.3 10.0 23 14.1 NW 15 22 8 12 1013.1 1011.0 0.0
16/09:00am 33.8 30.2 10.4 24 13.7 NNW 20 30 11 16 1013.1 1011.0 0.0
16/08:30am 32.7 29.0 10.1 25 13.1 NNW 20 30 11 16 1013.1 1011.0 0.0
16/08:00am 31.5 28.8 10.2 27 12.3 NNW 15 19 8 10 1013.2 1011.1 0.0
16/07:30am 29.8 27.4 9.9 29 11.4 N 13 17 7 9 1013.2 1011.1 0.0
16/07:00am 28.8 26.5 9.0 29 11.1 N 11 15 6 8 1013.0 1010.9 0.0
16/06:30am 27.8 25.9 9.1 31 10.4 N 9 11 5 6 1012.6 1010.5 0.0
16/06:00am 27.9 25.7 9.2 31 10.5 NNE 11 13 6 7 1012.2 1010.1 0.0
16/05:30am 28.0 25.4 9.3 31 10.5 N 13 15 7 8 1011.5 1009.4 0.0
16/05:00am 27.3 24.5 8.7 31 10.3 N 13 15 7 8 1011.2 1009.1 0.0
16/04:30am 26.7 23.8 6.7 28 10.7 NNE 11 11 6 6 1010.9 1008.8 0.0
16/04:00am 26.3 25.3 5.8 27 10.7 CALM 0 2 0 1 1010.9 1008.8 0.0
16/03:30am 27.6 25.6 6.4 26 11.3 NNE 6 7 3 4 1010.6 1008.5 0.0
16/03:00am 27.8 25.3 6.6 26 11.4 N 9 11 5 6 1010.6 1008.5 0.0
16/02:30am 28.2 25.6 6.3 25 11.7 N 9 11 5 6 1010.7 1008.6 0.0
16/02:00am 28.4 25.6 7.1 26 11.5 N 11 13 6 7 1010.7 1008.6 0.0
16/01:30am 26.9 24.9 6.9 28 10.7 NNE 7 9 4 5 1011.1 1008.9 0.0
16/01:00am 27.4 25.3 6.8 27 11.1 NE 7 9 4 5 1011.3 1009.2 0.0
16/12:30am 28.0 26.0 6.2 25 11.6 ENE 6 7 3 4 1011.5 1009.4 0.0
16/12:00am 28.4 26.1 5.9 24 11.9 ENE 7 9 4 5 1011.7 1009.6 0.0
 
Date/Time
EST
Temp
°C
App
Temp
°C
Dew
Point
°C
Rel
Hum
%
Delta-T
°C
Wind Press
QNH
hPa
Press
MSL
hPa
Rain since
9am
mm
Dir  Spd
km/h
Gust
km/h
Spd
kts
Gust
kts
15/11:30pm 29.1 26.6 6.5 24 12.2 NE 9 9 5 5 1012.0 1009.9 0.0
15/11:00pm 30.2 27.6 6.1 22 13.0 ENE 9 9 5 5 1012.1 1010.0 0.0
15/10:30pm 31.1 28.9 6.2 21 13.5 E 7 9 4 5 1012.2 1010.1 0.0
15/10:00pm 32.6 30.0 6.0 19 14.5 E 9 11 5 6 1011.9 1009.8 0.0
15/09:30pm 32.8 30.1 5.4 18 14.8 E 9 11 5 6 1012.0 1009.9 0.0
15/09:00pm 33.4 31.1 5.9 18 15.0 ESE 7 11 4 6 1011.7 1009.6 0.0
15/08:30pm 35.1 32.2 4.6 15 16.4 E 9 13 5 7 1011.5 1009.4 0.0
15/08:00pm 36.3 32.2 4.6 14 17.2 E 15 19 8 10 1011.1 1008.9 0.0
15/07:30pm 36.9 32.9 5.0 14 17.5 E 15 20 8 11 1010.7 1008.6 0.0
15/07:00pm 37.6 32.8 5.6 14 17.8 E 20 30 11 16 1010.4 1008.3 0.0
15/06:30pm 38.3 33.4 5.0 13 18.4 ESE 20 30 11 16 1010.2 1008.1 0.0
15/06:00pm 38.7 33.5 5.4 13 18.5 E 22 32 12 17 1010.1 1008.0 0.0
15/05:30pm 39.7 35.6 6.1 13 18.9 E 17 30 9 16 1009.9 1007.8 0.0
15/05:00pm 38.3 33.4 5.0 13 18.4 SE 20 32 11 17 1010.0 1007.9 0.0
15/04:30pm 39.0 34.4 5.6 13 18.6 ENE 19 30 10 16 1010.1 1008.0 0.0
15/04:00pm 38.5 34.0 6.3 14 18.1 ESE 19 30 10 16 1010.3 1008.2 0.0
15/03:30pm 39.2 33.9 6.8 14 18.4 ESE 24 39 13 21 1010.6 1008.5 0.0
15/03:00pm 38.7 34.3 6.4 14 18.2 SE 19 35 10 19 1011.1 1008.9 0.0
15/02:30pm 38.5 34.6 7.3 15 17.8 NNE 17 32 9 17 1011.6 1009.5 0.0
15/02:00pm 38.5 34.1 7.3 15 17.8 ESE 20 39 11 21 1012.1 1010.0 0.0
15/01:30pm 37.4 33.4 8.2 17 16.8 NE 19 28 10 15 1012.6 1010.5 0.0
15/01:00pm 37.0 34.3 8.8 18 16.4 E 13 28 7 15 1013.2 1011.1 0.0
15/12:30pm 35.7 33.7 10.0 21 15.1 NE 11 22 6 12 1013.7 1011.6 0.0
15/12:00pm 35.0 33.2 10.8 23 14.3 ENE 11 20 6 11 1014.4 1012.4 0.0
15/11:30am 34.5 32.4 11.0 24 13.9 ENE 13 32 7 17 1015.0 1012.9 0.0
15/11:00am 33.6 32.5 12.0 27 12.9 NE 9 15 5 8 1015.3 1013.2 0.0
15/10:30am 33.0 32.3 13.1 30 12.1 N 9 13 5 7 1015.8 1013.7 0.0
15/10:00am 32.3 30.9 13.5 32 11.5 N 13 24 7 13 1015.9 1013.8 0.0
15/09:30am 31.1 29.3 13.4 34 10.7 N 15 19 8 10 1016.3 1014.2 0.0
15/09:00am 30.7 29.4 14.8 38 9.8 N 15 20 8 11 1016.5 1014.4 0.0
15/08:30am 29.6 27.3 14.6 40 9.2 N 20 26 11 14 1016.5 1014.4 0.0
15/08:00am 28.7 26.5 14.9 43 8.5 N 20 28 11 15 1016.5 1014.4 0.0
15/07:30am 28.0 25.9 13.5 41 8.7 N 17 26 9 14 1016.5 1014.4 0.0
15/07:00am 27.5 25.0 11.1 36 9.4 NNE 15 22 8 12 1016.4 1014.3 0.0
15/06:30am 26.6 23.9 9.0 33 9.8 NNE 13 17 7 9 1015.9 1013.8 0.0
15/06:00am 25.5 23.7 9.3 36 9.0 NNE 9 11 5 6 1015.4 1013.3 0.0
15/05:30am 25.6 24.1 9.0 35 9.1 NNE 7 9 4 5 1014.8 1012.7 0.0
15/05:00am 26.0 24.1 8.9 34 9.4 NNE 9 11 5 6 1014.0 1011.9 0.0
15/04:30am 25.7 23.8 9.1 35 9.2 NE 9 11 5 6 1013.5 1011.4 0.0
15/04:00am 25.7 24.3 9.5 36 9.0 NNE 7 9 4 5 1013.2 1011.1 0.0
15/03:30am 25.5 23.7 8.1 33 9.4 NE 7 9 4 5 1013.0 1010.9 0.0
15/03:00am 26.3 24.1 7.8 31 10.0 NE 9 9 5 5 1012.8 1010.7 0.0
15/02:30am 27.6 25.7 9.0 31 10.4 NNE 9 11 5 6 1012.5 1010.4 0.0
15/02:00am 28.2 26.2 8.5 29 10.9 NNE 9 11 5 6 1012.8 1010.7 0.0
15/01:30am 28.9 27.1 8.0 27 11.5 NE 7 9 4 5 1013.0 1010.9 0.0
15/01:00am 29.6 27.5 8.1 26 11.9 NE 9 13 5 7 1013.0 1010.9 0.0
15/12:30am 30.0 27.3 7.2 24 12.5 NE 11 15 6 8 1013.1 1011.0 0.0
15/12:00am 30.3 27.5 6.9 23 12.8 ENE 11 15 6 8 1013.2 1011.1 0.0
 
Date/Time
EST
Temp
°C
App
Temp
°C
Dew
Point
°C
Rel
Hum
%
Delta-T
°C
Wind Press
QNH
hPa
Press
MSL
hPa
Rain since
9am
mm
Dir  Spd
km/h
Gust
km/h
Spd
kts
Gust
kts
14/11:30pm 30.6 27.7 6.5 22 13.1 E 11 15 6 8 1013.0 1010.9 0.0
14/11:00pm 30.9 27.9 6.0 21 13.4 E 11 15 6 8 1013.2 1011.1 0.0
14/10:30pm 31.5 28.3 5.1 19 14.1 E 11 13 6 7 1013.2 1011.1 0.0
14/10:00pm 32.2 28.6 4.9 18 14.6 E 13 15 7 8 1013.2 1011.1 0.0
14/09:30pm 32.7 29.0 4.5 17 15.0 ESE 13 15 7 8 1012.8 1010.7 0.0
14/09:00pm 33.5 29.4 4.2 16 15.6 ESE 15 19 8 10 1012.5 1010.4 0.0
14/08:30pm 34.0 29.8 3.7 15 16.0 ESE 15 17 8 9 1012.3 1010.2 0.0
14/08:00pm 34.7 30.0 3.3 14 16.6 ESE 17 26 9 14 1011.9 1009.8 0.0
14/07:30pm 35.3 30.5 2.7 13 17.1 E 17 26 9 14 1011.6 1009.5 0.0
14/07:00pm 36.1 30.1 3.3 13 17.4 E 24 32 13 17 1011.4 1009.3 0.0
14/06:30pm 36.8 31.7 3.9 13 17.7 E 20 32 11 17 1010.9 1008.8 0.0
14/06:00pm 37.4 31.8 3.2 12 18.3 E 22 30 12 16 1010.6 1008.5 0.0
14/05:30pm 37.5 31.5 3.3 12 18.3 ESE 24 35 13 19 1010.3 1008.2 0.0
14/05:00pm 37.6 31.4 2.1 11 18.7 E 24 39 13 21 1010.2 1008.1 0.0
14/04:30pm 38.1 32.5 1.2 10 19.2 SE 20 32 11 17 1010.0 1007.9 0.0
14/04:00pm 38.2 32.6 1.3 10 19.2 ESE 20 32 11 17 1010.2 1008.1 0.0
14/03:30pm 38.6 32.8 0.1 9 19.7 ESE 20 30 11 16 1010.5 1008.4 0.0
14/03:00pm 38.2 32.2 1.3 10 19.2 ESE 22 39 12 21 1010.9 1008.8 0.0
14/02:30pm 37.6 31.6 0.8 10 18.9 ESE 22 37 12 20 1011.4 1009.3 0.0
14/02:00pm 37.7 31.7 0.9 10 19.0 E 22 37 12 20 1011.9 1009.8 0.0
14/01:30pm 37.5 32.3 3.3 12 18.3 ESE 20 37 11 20 1012.4 1010.3 0.0
14/01:00pm 36.1 30.9 3.3 13 17.4 E 20 35 11 19 1012.8 1010.7 0.0
14/12:30pm 36.3 31.7 3.5 13 17.5 ENE 17 30 9 16 1013.2 1011.1 0.0
14/12:00pm 35.8 32.3 8.6 19 15.6 SE 17 28 9 15 1013.7 1011.6 0.0
14/11:30am 35.5 31.9 10.5 22 14.8 ESE 20 32 11 17 1014.2 1012.2 0.0
14/11:00am 33.9 31.1 9.9 23 14.0 ENE 15 28 8 15 1014.9 1012.8 0.0
14/10:30am 33.6 31.2 11.5 26 13.2 NE 15 28 8 15 1015.3 1013.2 0.0
14/10:00am 32.4 29.9 11.0 27 12.6 E 15 30 8 16 1015.7 1013.6 0.0
14/09:30am 31.7 28.9 11.5 29 11.9 NE 17 30 9 16 1015.7 1013.6 0.0
14/09:00am 30.5 28.0 11.0 30 11.4 NNE 15 24 8 13 1015.8 1013.7 0.0
14/08:30am 29.3 26.3 11.8 34 10.3 NE 19 26 10 14 1015.8 1013.7 0.0
14/08:00am 28.8 25.8 12.7 37 9.6 NE 20 26 11 14 1015.9 1013.8 0.0
14/07:30am 28.9 25.4 11.0 33 10.4 NE 20 28 11 15 1015.9 1013.8 0.0
14/07:00am 28.2 25.0 9.9 32 10.4 NE 17 26 9 14 1015.7 1013.6 0.0
14/06:30am 27.7 24.8 9.5 32 10.2 ENE 15 20 8 11 1015.2 1013.1 0.0
14/06:00am 27.2 25.0 9.5 33 9.9 NE 11 15 6 8 1014.7 1012.6 0.0
14/05:30am 27.5 24.9 9.3 32 10.2 ENE 13 17 7 9 1014.1 1012.1 0.0
14/05:00am 27.7 25.0 9.0 31 10.4 ENE 13 17 7 9 1013.6 1011.5 0.0
14/04:30am 28.0 25.6 8.8 30 10.7 NE 11 15 6 8 1013.0 1010.9 0.0
14/04:00am 28.5 26.0 8.2 28 11.2 ENE 11 15 6 8 1012.6 1010.5 0.0
14/03:30am 28.7 26.5 7.9 27 11.4 NE 9 13 5 7 1012.4 1010.3 0.0
14/03:00am 29.3 26.7 7.8 26 11.8 NE 11 13 6 7 1012.3 1010.2 0.0
14/02:30am 29.9 26.8 7.2 24 12.4 NE 13 17 7 9 1012.1 1010.0 0.0
14/02:00am 30.7 26.8 7.2 23 12.9 ENE 17 26 9 14 1012.1 1010.0 0.0
14/01:30am 31.2 27.1 6.3 21 13.5 ENE 17 24 9 13 1012.2 1010.1 0.0
14/01:00am 31.5 27.8 6.5 21 13.6 E 15 20 8 11 1012.5 1010.4 0.0
14/12:30am 31.8 28.1 6.1 20 13.9 E 15 26 8 14 1012.8 1010.7 0.0
14/12:00am 32.3 27.7 5.7 19 14.4 E 19 26 10 14 1012.8 1010.7 0.0
 
Date/Time
EST
Temp
°C
App
Temp
°C
Dew
Point
°C
Rel
Hum
%
Delta-T
°C
Wind Press
QNH
hPa
Press
MSL
hPa
Rain since
9am
mm
Dir  Spd
km/h
Gust
km/h
Spd
kts
Gust
kts
13/11:30pm 32.8 27.8 4.6 17 15.0 E 20 28 11 15 1013.0 1010.9 0.0
13/11:00pm 33.2 28.5 3.1 15 15.7 E 17 22 9 12 1013.1 1011.0 0.0
13/10:30pm 33.8 29.0 2.6 14 16.2 E 17 20 9 11 1012.9 1010.8 0.0
13/10:00pm 34.3 29.8 4.0 15 16.1 E 17 30 9 16 1012.7 1010.6 0.0
13/09:30pm 34.8 30.3 4.4 15 16.3 E 17 26 9 14 1012.5 1010.4 0.0
13/09:00pm 35.1 30.1 3.6 14 16.7 E 19 24 10 13 1012.3 1010.2 0.0
13/08:30pm 35.8 30.7 3.1 13 17.3 E 19 28 10 15 1012.0 1009.9 0.0
13/08:00pm 36.1 31.4 3.3 13 17.4 E 17 24 9 13 1011.6 1009.5 0.0
13/07:30pm 36.9 31.8 2.8 12 18.0 E 19 26 10 14 1011.3 1009.2 0.0
13/07:00pm 37.6 32.4 3.4 12 18.3 ESE 20 33 11 18 1010.9 1008.8 0.0
13/06:30pm 38.5 33.4 4.1 12 18.7 ESE 20 32 11 17 1010.5 1008.4 0.0
13/06:00pm 38.8 33.4 4.3 12 18.9 ESE 22 33 12 18 1010.3 1008.2 0.0
13/05:30pm 39.4 33.4 3.5 11 19.5 SE 24 33 13 18 1010.0 1007.9 0.0
13/05:00pm 39.7 34.1 3.7 11 19.6 SE 22 35 12 19 1009.9 1007.8 0.0
13/04:30pm 39.6 34.0 3.7 11 19.5 ESE 22 39 12 21 1009.8 1007.7 0.0
13/04:07pm 39.8 32.5 2.5 10 20.0 SE 30 52 16 28 1009.7 1007.6 0.0
13/04:00pm 40.0 32.1 1.1 9 20.4 SE 32 44 17 24 1009.8 1007.7 0.0
13/03:30pm 40.0 33.0 4.0 11 19.7 SE 30 43 16 23 1009.9 1007.8 0.0
13/03:00pm 40.5 33.9 4.3 11 20.0 SE 28 37 15 20 1010.4 1008.3 0.0
13/02:38pm 40.9 34.4 4.6 11 20.1 SE 28 48 15 26 1010.7 1008.6 0.0
13/02:30pm 40.2 33.2 4.1 11 19.8 SE 30 41 16 22 1010.9 1008.8 0.0
13/02:00pm 39.8 33.9 3.8 11 19.7 SE 24 56 13 30 1011.2 1009.1 0.0
13/01:53pm 40.5 34.7 4.3 11 20.0 SE 24 56 13 30 1011.4 1009.3 0.0
13/01:30pm 39.5 33.0 4.8 12 19.2 ESE 28 41 15 22 1011.7 1009.6 0.0
13/01:00pm 39.6 33.5 4.9 12 19.2 ESE 26 37 14 20 1012.1 1010.0 0.0
13/12:30pm 38.7 33.5 5.4 13 18.5 SE 22 43 12 23 1012.7 1010.6 0.0
13/12:00pm 38.3 33.4 5.0 13 18.4 E 20 39 11 21 1013.1 1011.0 0.0
13/11:30am 37.8 32.1 4.7 13 18.1 ESE 24 35 13 19 1013.5 1011.4 0.0
13/11:00am 36.9 33.4 7.0 16 16.9 SE 15 24 8 13 1013.9 1011.8 0.0

Other Formats:

Comma delimited format used in spreadsheet applications
http://www.bom.gov.au/fwo/IDQ60801/IDQ60801.94510.axf

JavaScript Object Notation format (JSON) in row-major order
http://www.bom.gov.au/fwo/IDQ60801/IDQ60801.94510.json